sensor_id;sensor_type;location;lat;lon;timestamp;temperature;humidity
10459;DHT22;5277;48.722;8.736;2023-05-07T00:01:14;12.60;99.90
10459;DHT22;5277;48.722;8.736;2023-05-07T00:03:40;12.60;99.90
10459;DHT22;5277;48.722;8.736;2023-05-07T00:06:05;12.60;99.90
10459;DHT22;5277;48.722;8.736;2023-05-07T00:08:31;12.60;99.90
10459;DHT22;5277;48.722;8.736;2023-05-07T00:10:57;12.60;99.90
10459;DHT22;5277;48.722;8.736;2023-05-07T00:13:22;12.60;99.90
10459;DHT22;5277;48.722;8.736;2023-05-07T00:15:48;12.60;99.90
10459;DHT22;5277;48.722;8.736;2023-05-07T00:18:13;12.60;99.90
10459;DHT22;5277;48.722;8.736;2023-05-07T00:20:39;12.60;99.90
10459;DHT22;5277;48.722;8.736;2023-05-07T00:23:04;12.50;99.90
10459;DHT22;5277;48.722;8.736;2023-05-07T00:25:30;12.60;99.90
10459;DHT22;5277;48.722;8.736;2023-05-07T00:27:56;12.50;99.90
10459;DHT22;5277;48.722;8.736;2023-05-07T00:30:22;12.50;99.90
10459;DHT22;5277;48.722;8.736;2023-05-07T00:32:48;12.50;99.90
10459;DHT22;5277;48.722;8.736;2023-05-07T00:35:14;12.50;99.90
10459;DHT22;5277;48.722;8.736;2023-05-07T00:37:39;12.50;99.90
10459;DHT22;5277;48.722;8.736;2023-05-07T00:40:06;12.50;99.90
10459;DHT22;5277;48.722;8.736;2023-05-07T00:42:33;12.50;99.90
10459;DHT22;5277;48.722;8.736;2023-05-07T00:44:58;12.40;99.90
10459;DHT22;5277;48.722;8.736;2023-05-07T00:47:25;12.40;99.90
10459;DHT22;5277;48.722;8.736;2023-05-07T00:49:51;12.50;99.90
10459;DHT22;5277;48.722;8.736;2023-05-07T00:52:17;12.40;99.90
10459;DHT22;5277;48.722;8.736;2023-05-07T00:54:44;12.40;99.90
10459;DHT22;5277;48.722;8.736;2023-05-07T00:57:10;12.40;99.90
10459;DHT22;5277;48.722;8.736;2023-05-07T00:59:39;12.40;99.90
10459;DHT22;5277;48.722;8.736;2023-05-07T01:02:06;12.40;99.90
10459;DHT22;5277;48.722;8.736;2023-05-07T01:04:32;12.40;99.90
10459;DHT22;5277;48.722;8.736;2023-05-07T01:06:58;12.40;99.90
10459;DHT22;5277;48.722;8.736;2023-05-07T01:09:25;12.40;99.90
10459;DHT22;5277;48.722;8.736;2023-05-07T01:11:51;12.30;99.90
10459;DHT22;5277;48.722;8.736;2023-05-07T01:14:18;12.30;99.90
10459;DHT22;5277;48.722;8.736;2023-05-07T01:16:44;12.30;99.90
10459;DHT22;5277;48.722;8.736;2023-05-07T01:19:11;12.20;99.90
10459;DHT22;5277;48.722;8.736;2023-05-07T01:21:45;12.20;99.90
10459;DHT22;5277;48.722;8.736;2023-05-07T01:24:11;12.20;99.90
10459;DHT22;5277;48.722;8.736;2023-05-07T01:26:38;12.20;99.90
10459;DHT22;5277;48.722;8.736;2023-05-07T01:29:04;12.20;99.90
10459;DHT22;5277;48.722;8.736;2023-05-07T01:31:29;12.20;99.90
10459;DHT22;5277;48.722;8.736;2023-05-07T01:33:57;12.20;99.90
10459;DHT22;5277;48.722;8.736;2023-05-07T01:36:24;12.20;99.90
10459;DHT22;5277;48.722;8.736;2023-05-07T01:38:52;12.20;99.90
10459;DHT22;5277;48.722;8.736;2023-05-07T01:41:19;12.20;99.90
10459;DHT22;5277;48.722;8.736;2023-05-07T01:43:46;12.20;99.90
10459;DHT22;5277;48.722;8.736;2023-05-07T01:46:12;12.20;99.90
10459;DHT22;5277;48.722;8.736;2023-05-07T01:48:39;12.10;99.90
10459;DHT22;5277;48.722;8.736;2023-05-07T01:51:05;12.10;99.90
10459;DHT22;5277;48.722;8.736;2023-05-07T01:53:39;12.10;99.90
10459;DHT22;5277;48.722;8.736;2023-05-07T01:56:06;12.10;99.90
10459;DHT22;5277;48.722;8.736;2023-05-07T01:58:31;12.10;99.90
10459;DHT22;5277;48.722;8.736;2023-05-07T02:00:57;12.10;99.90
10459;DHT22;5277;48.722;8.736;2023-05-07T02:03:23;12.20;99.90
10459;DHT22;5277;48.722;8.736;2023-05-07T02:05:48;12.10;99.90
10459;DHT22;5277;48.722;8.736;2023-05-07T02:08:14;12.10;99.90
10459;DHT22;5277;48.722;8.736;2023-05-07T02:10:39;12.10;99.90
10459;DHT22;5277;48.722;8.736;2023-05-07T02:13:05;12.10;99.90
10459;DHT22;5277;48.722;8.736;2023-05-07T02:15:31;12.10;99.90
10459;DHT22;5277;48.722;8.736;2023-05-07T02:18:01;12.00;99.90
10459;DHT22;5277;48.722;8.736;2023-05-07T02:20:26;12.00;99.90
10459;DHT22;5277;48.722;8.736;2023-05-07T02:22:52;12.00;99.90
10459;DHT22;5277;48.722;8.736;2023-05-07T02:25:18;12.00;99.90
10459;DHT22;5277;48.722;8.736;2023-05-07T02:27:43;11.90;99.90
10459;DHT22;5277;48.722;8.736;2023-05-07T02:30:09;11.80;99.90
10459;DHT22;5277;48.722;8.736;2023-05-07T02:32:35;11.90;99.90
10459;DHT22;5277;48.722;8.736;2023-05-07T02:35:01;11.90;99.90
10459;DHT22;5277;48.722;8.736;2023-05-07T02:37:26;11.80;99.90
10459;DHT22;5277;48.722;8.736;2023-05-07T02:39:52;11.80;99.90
10459;DHT22;5277;48.722;8.736;2023-05-07T02:42:17;11.80;99.90
10459;DHT22;5277;48.722;8.736;2023-05-07T02:44:43;11.80;99.90
10459;DHT22;5277;48.722;8.736;2023-05-07T02:47:08;11.80;99.90
10459;DHT22;5277;48.722;8.736;2023-05-07T02:49:35;11.70;99.90
10459;DHT22;5277;48.722;8.736;2023-05-07T02:52:00;11.70;99.90
10459;DHT22;5277;48.722;8.736;2023-05-07T02:54:26;11.80;99.90
10459;DHT22;5277;48.722;8.736;2023-05-07T02:56:51;11.70;99.90
10459;DHT22;5277;48.722;8.736;2023-05-07T02:59:17;11.70;99.90
10459;DHT22;5277;48.722;8.736;2023-05-07T03:01:42;11.60;99.90
10459;DHT22;5277;48.722;8.736;2023-05-07T03:04:10;11.60;99.90
10459;DHT22;5277;48.722;8.736;2023-05-07T03:06:36;11.60;99.90
10459;DHT22;5277;48.722;8.736;2023-05-07T03:09:02;11.60;99.90
10459;DHT22;5277;48.722;8.736;2023-05-07T03:11:27;11.50;99.90
10459;DHT22;5277;48.722;8.736;2023-05-07T03:13:53;11.50;99.90
10459;DHT22;5277;48.722;8.736;2023-05-07T03:16:18;11.40;99.90
10459;DHT22;5277;48.722;8.736;2023-05-07T03:18:44;11.40;99.90
10459;DHT22;5277;48.722;8.736;2023-05-07T03:21:10;11.40;99.90
10459;DHT22;5277;48.722;8.736;2023-05-07T03:23:35;11.40;99.90
10459;DHT22;5277;48.722;8.736;2023-05-07T03:26:01;11.40;99.90
10459;DHT22;5277;48.722;8.736;2023-05-07T03:28:26;11.30;99.90
10459;DHT22;5277;48.722;8.736;2023-05-07T03:30:52;11.20;99.90
10459;DHT22;5277;48.722;8.736;2023-05-07T03:33:18;11.10;99.90
10459;DHT22;5277;48.722;8.736;2023-05-07T03:35:43;11.10;99.90
10459;DHT22;5277;48.722;8.736;2023-05-07T03:38:09;11.20;99.90
10459;DHT22;5277;48.722;8.736;2023-05-07T03:40:35;11.20;99.90
10459;DHT22;5277;48.722;8.736;2023-05-07T03:43:00;11.20;99.90
10459;DHT22;5277;48.722;8.736;2023-05-07T03:45:27;11.20;99.90
10459;DHT22;5277;48.722;8.736;2023-05-07T03:47:52;11.20;99.90
10459;DHT22;5277;48.722;8.736;2023-05-07T03:50:18;11.20;99.90
10459;DHT22;5277;48.722;8.736;2023-05-07T03:52:43;11.10;99.90
10459;DHT22;5277;48.722;8.736;2023-05-07T03:55:09;11.10;99.90
10459;DHT22;5277;48.722;8.736;2023-05-07T03:57:35;11.00;99.90
10459;DHT22;5277;48.722;8.736;2023-05-07T04:00:01;11.00;99.90
10459;DHT22;5277;48.722;8.736;2023-05-07T04:02:27;11.00;99.90
10459;DHT22;5277;48.722;8.736;2023-05-07T04:04:52;11.00;99.90
10459;DHT22;5277;48.722;8.736;2023-05-07T04:07:19;11.00;99.90
10459;DHT22;5277;48.722;8.736;2023-05-07T04:09:44;11.00;99.90
10459;DHT22;5277;48.722;8.736;2023-05-07T04:12:10;11.00;99.90
10459;DHT22;5277;48.722;8.736;2023-05-07T04:14:35;11.00;99.90
10459;DHT22;5277;48.722;8.736;2023-05-07T04:17:01;11.00;99.90
10459;DHT22;5277;48.722;8.736;2023-05-07T04:19:28;11.00;99.90
10459;DHT22;5277;48.722;8.736;2023-05-07T04:21:53;11.00;99.90
10459;DHT22;5277;48.722;8.736;2023-05-07T04:24:19;11.00;99.90
10459;DHT22;5277;48.722;8.736;2023-05-07T04:26:44;11.00;99.90
10459;DHT22;5277;48.722;8.736;2023-05-07T04:29:10;11.00;99.90
10459;DHT22;5277;48.722;8.736;2023-05-07T04:31:36;11.00;99.90
10459;DHT22;5277;48.722;8.736;2023-05-07T04:34:02;11.00;99.90
10459;DHT22;5277;48.722;8.736;2023-05-07T04:36:27;11.00;99.90
10459;DHT22;5277;48.722;8.736;2023-05-07T04:38:54;11.00;99.90
10459;DHT22;5277;48.722;8.736;2023-05-07T04:41:20;10.90;99.90
10459;DHT22;5277;48.722;8.736;2023-05-07T04:43:46;10.90;99.90
10459;DHT22;5277;48.722;8.736;2023-05-07T04:46:11;10.90;99.90
10459;DHT22;5277;48.722;8.736;2023-05-07T04:48:37;10.90;99.90
10459;DHT22;5277;48.722;8.736;2023-05-07T04:51:03;10.90;99.90
10459;DHT22;5277;48.722;8.736;2023-05-07T04:53:28;11.00;99.90
10459;DHT22;5277;48.722;8.736;2023-05-07T04:55:57;11.10;99.90
10459;DHT22;5277;48.722;8.736;2023-05-07T04:58:23;11.10;99.90
10459;DHT22;5277;48.722;8.736;2023-05-07T05:00:49;11.10;99.90
10459;DHT22;5277;48.722;8.736;2023-05-07T05:03:15;11.20;99.90
10459;DHT22;5277;48.722;8.736;2023-05-07T05:05:40;11.30;99.90
10459;DHT22;5277;48.722;8.736;2023-05-07T05:08:06;11.30;99.90
10459;DHT22;5277;48.722;8.736;2023-05-07T05:10:32;11.30;99.90
10459;DHT22;5277;48.722;8.736;2023-05-07T05:12:57;11.40;99.90
10459;DHT22;5277;48.722;8.736;2023-05-07T05:15:23;11.40;99.90
10459;DHT22;5277;48.722;8.736;2023-05-07T05:17:48;11.50;99.90
10459;DHT22;5277;48.722;8.736;2023-05-07T05:20:14;11.50;99.90
10459;DHT22;5277;48.722;8.736;2023-05-07T05:22:41;11.50;99.90
10459;DHT22;5277;48.722;8.736;2023-05-07T05:25:07;11.60;99.90
10459;DHT22;5277;48.722;8.736;2023-05-07T05:27:33;11.70;99.90
10459;DHT22;5277;48.722;8.736;2023-05-07T05:29:59;11.70;99.90
10459;DHT22;5277;48.722;8.736;2023-05-07T05:32:25;11.80;99.90
10459;DHT22;5277;48.722;8.736;2023-05-07T05:34:51;11.80;99.90
10459;DHT22;5277;48.722;8.736;2023-05-07T05:37:16;11.80;99.90
10459;DHT22;5277;48.722;8.736;2023-05-07T05:39:42;11.80;99.90
10459;DHT22;5277;48.722;8.736;2023-05-07T05:42:07;11.90;99.90
10459;DHT22;5277;48.722;8.736;2023-05-07T05:44:33;11.90;99.90
10459;DHT22;5277;48.722;8.736;2023-05-07T05:46:59;12.00;99.90
10459;DHT22;5277;48.722;8.736;2023-05-07T05:49:25;12.00;99.90
10459;DHT22;5277;48.722;8.736;2023-05-07T05:51:51;12.20;99.90
10459;DHT22;5277;48.722;8.736;2023-05-07T05:54:16;12.30;99.90
10459;DHT22;5277;48.722;8.736;2023-05-07T05:56:42;12.50;99.90
10459;DHT22;5277;48.722;8.736;2023-05-07T05:59:08;12.60;99.90
10459;DHT22;5277;48.722;8.736;2023-05-07T06:01:33;12.80;99.90
10459;DHT22;5277;48.722;8.736;2023-05-07T06:03:59;13.00;99.90
10459;DHT22;5277;48.722;8.736;2023-05-07T06:06:25;13.10;99.90
10459;DHT22;5277;48.722;8.736;2023-05-07T06:08:51;13.10;99.90
10459;DHT22;5277;48.722;8.736;2023-05-07T06:11:16;13.20;99.90
10459;DHT22;5277;48.722;8.736;2023-05-07T06:13:42;13.30;99.90
10459;DHT22;5277;48.722;8.736;2023-05-07T06:16:08;13.40;99.90
10459;DHT22;5277;48.722;8.736;2023-05-07T06:18:33;13.50;99.90
10459;DHT22;5277;48.722;8.736;2023-05-07T06:21:01;13.50;99.90
10459;DHT22;5277;48.722;8.736;2023-05-07T06:23:27;13.50;99.90
10459;DHT22;5277;48.722;8.736;2023-05-07T06:25:52;13.60;99.90
10459;DHT22;5277;48.722;8.736;2023-05-07T06:28:18;13.80;99.90
10459;DHT22;5277;48.722;8.736;2023-05-07T06:30:44;13.90;99.90
10459;DHT22;5277;48.722;8.736;2023-05-07T06:33:09;14.10;99.90
10459;DHT22;5277;48.722;8.736;2023-05-07T06:35:35;14.40;99.90
10459;DHT22;5277;48.722;8.736;2023-05-07T06:38:00;14.60;99.90
10459;DHT22;5277;48.722;8.736;2023-05-07T06:40:27;14.90;99.90
10459;DHT22;5277;48.722;8.736;2023-05-07T06:42:52;15.20;99.90
10459;DHT22;5277;48.722;8.736;2023-05-07T06:45:19;15.40;99.90
10459;DHT22;5277;48.722;8.736;2023-05-07T06:47:45;15.60;99.90
10459;DHT22;5277;48.722;8.736;2023-05-07T06:50:11;15.80;99.90
10459;DHT22;5277;48.722;8.736;2023-05-07T06:52:36;16.00;99.90
10459;DHT22;5277;48.722;8.736;2023-05-07T06:55:02;16.20;99.90
10459;DHT22;5277;48.722;8.736;2023-05-07T06:57:27;16.30;99.90
10459;DHT22;5277;48.722;8.736;2023-05-07T06:59:53;16.70;99.90
10459;DHT22;5277;48.722;8.736;2023-05-07T07:02:18;16.90;99.90
10459;DHT22;5277;48.722;8.736;2023-05-07T07:04:44;17.10;99.90
10459;DHT22;5277;48.722;8.736;2023-05-07T07:07:10;17.20;99.90
10459;DHT22;5277;48.722;8.736;2023-05-07T07:09:36;17.30;99.90
10459;DHT22;5277;48.722;8.736;2023-05-07T07:12:02;17.40;99.70
10459;DHT22;5277;48.722;8.736;2023-05-07T07:14:27;17.40;99.10
10459;DHT22;5277;48.722;8.736;2023-05-07T07:16:53;17.60;99.60
10459;DHT22;5277;48.722;8.736;2023-05-07T07:19:18;17.60;99.20
10459;DHT22;5277;48.722;8.736;2023-05-07T07:21:45;17.80;99.10
10459;DHT22;5277;48.722;8.736;2023-05-07T07:24:11;17.90;99.00
10459;DHT22;5277;48.722;8.736;2023-05-07T07:26:36;17.90;98.70
10459;DHT22;5277;48.722;8.736;2023-05-07T07:29:02;17.90;99.10
10459;DHT22;5277;48.722;8.736;2023-05-07T07:31:27;17.90;98.20
10459;DHT22;5277;48.722;8.736;2023-05-07T07:33:53;18.00;98.70
10459;DHT22;5277;48.722;8.736;2023-05-07T07:36:19;18.10;99.20
10459;DHT22;5277;48.722;8.736;2023-05-07T07:38:44;18.20;98.40
10459;DHT22;5277;48.722;8.736;2023-05-07T07:41:10;18.30;98.40
10459;DHT22;5277;48.722;8.736;2023-05-07T07:43:35;18.60;99.00
10459;DHT22;5277;48.722;8.736;2023-05-07T07:46:02;18.90;98.20
10459;DHT22;5277;48.722;8.736;2023-05-07T07:48:28;19.10;98.00
10459;DHT22;5277;48.722;8.736;2023-05-07T07:50:53;19.40;97.30
10459;DHT22;5277;48.722;8.736;2023-05-07T07:53:19;19.80;96.70
10459;DHT22;5277;48.722;8.736;2023-05-07T07:55:44;20.00;96.30
10459;DHT22;5277;48.722;8.736;2023-05-07T07:58:10;20.10;95.00
10459;DHT22;5277;48.722;8.736;2023-05-07T08:00:36;20.20;95.30
10459;DHT22;5277;48.722;8.736;2023-05-07T08:03:02;20.40;95.40
10459;DHT22;5277;48.722;8.736;2023-05-07T08:05:28;20.50;95.10
10459;DHT22;5277;48.722;8.736;2023-05-07T08:07:54;20.50;94.80
10459;DHT22;5277;48.722;8.736;2023-05-07T08:10:20;20.50;95.40
10459;DHT22;5277;48.722;8.736;2023-05-07T08:12:49;20.50;95.20
10459;DHT22;5277;48.722;8.736;2023-05-07T08:15:14;20.50;94.90
10459;DHT22;5277;48.722;8.736;2023-05-07T08:17:40;20.70;95.00
10459;DHT22;5277;48.722;8.736;2023-05-07T08:20:06;21.10;94.60
10459;DHT22;5277;48.722;8.736;2023-05-07T08:22:33;21.30;94.30
10459;DHT22;5277;48.722;8.736;2023-05-07T08:24:59;21.30;94.10
10459;DHT22;5277;48.722;8.736;2023-05-07T08:27:25;21.40;94.60
10459;DHT22;5277;48.722;8.736;2023-05-07T08:29:51;21.60;94.00
10459;DHT22;5277;48.722;8.736;2023-05-07T08:32:16;21.80;94.10
10459;DHT22;5277;48.722;8.736;2023-05-07T08:34:42;21.90;93.80
10459;DHT22;5277;48.722;8.736;2023-05-07T08:37:08;22.00;93.80
10459;DHT22;5277;48.722;8.736;2023-05-07T08:39:33;22.10;93.50
10459;DHT22;5277;48.722;8.736;2023-05-07T08:42:00;22.30;92.80
10459;DHT22;5277;48.722;8.736;2023-05-07T08:44:33;22.60;92.90
10459;DHT22;5277;48.722;8.736;2023-05-07T08:47:01;22.80;92.20
10459;DHT22;5277;48.722;8.736;2023-05-07T08:49:30;22.70;92.30
10459;DHT22;5277;48.722;8.736;2023-05-07T08:51:56;22.90;91.90
10459;DHT22;5277;48.722;8.736;2023-05-07T08:54:21;22.90;91.90
10459;DHT22;5277;48.722;8.736;2023-05-07T08:56:47;23.00;92.10
10459;DHT22;5277;48.722;8.736;2023-05-07T08:59:13;23.20;91.20
10459;DHT22;5277;48.722;8.736;2023-05-07T09:01:39;23.30;90.70
10459;DHT22;5277;48.722;8.736;2023-05-07T09:04:05;23.30;91.00
10459;DHT22;5277;48.722;8.736;2023-05-07T09:06:32;23.30;90.80
10459;DHT22;5277;48.722;8.736;2023-05-07T09:08:58;23.40;90.30
10459;DHT22;5277;48.722;8.736;2023-05-07T09:11:26;23.60;90.60
10459;DHT22;5277;48.722;8.736;2023-05-07T09:13:56;23.60;88.80
10459;DHT22;5277;48.722;8.736;2023-05-07T09:16:23;23.80;89.40
10459;DHT22;5277;48.722;8.736;2023-05-07T09:18:53;23.90;87.10
10459;DHT22;5277;48.722;8.736;2023-05-07T09:21:20;24.10;88.20
10459;DHT22;5277;48.722;8.736;2023-05-07T09:23:48;24.30;87.60
10459;DHT22;5277;48.722;8.736;2023-05-07T09:26:14;24.60;87.10
10459;DHT22;5277;48.722;8.736;2023-05-07T09:28:41;24.90;86.70
10459;DHT22;5277;48.722;8.736;2023-05-07T09:31:10;25.00;84.10
10459;DHT22;5277;48.722;8.736;2023-05-07T09:33:37;25.40;84.40
10459;DHT22;5277;48.722;8.736;2023-05-07T09:36:06;25.60;82.70
10459;DHT22;5277;48.722;8.736;2023-05-07T09:38:33;25.70;81.90
10459;DHT22;5277;48.722;8.736;2023-05-07T09:41:07;26.00;80.50
10459;DHT22;5277;48.722;8.736;2023-05-07T09:43:35;26.10;79.10
10459;DHT22;5277;48.722;8.736;2023-05-07T09:46:13;26.40;78.70
10459;DHT22;5277;48.722;8.736;2023-05-07T09:48:42;26.50;79.20
10459;DHT22;5277;48.722;8.736;2023-05-07T09:51:30;26.80;77.90
10459;DHT22;5277;48.722;8.736;2023-05-07T09:53:57;27.10;75.90
10459;DHT22;5277;48.722;8.736;2023-05-07T09:56:23;27.20;74.60
10459;DHT22;5277;48.722;8.736;2023-05-07T09:58:49;27.70;74.70
10459;DHT22;5277;48.722;8.736;2023-05-07T10:01:18;27.90;72.50
10459;DHT22;5277;48.722;8.736;2023-05-07T10:03:47;28.50;71.30
10459;DHT22;5277;48.722;8.736;2023-05-07T10:06:14;28.90;68.70
10459;DHT22;5277;48.722;8.736;2023-05-07T10:08:40;29.20;66.50
10459;DHT22;5277;48.722;8.736;2023-05-07T10:11:07;29.20;64.90
10459;DHT22;5277;48.722;8.736;2023-05-07T10:13:35;29.40;62.30
10459;DHT22;5277;48.722;8.736;2023-05-07T10:16:04;29.60;61.80
10459;DHT22;5277;48.722;8.736;2023-05-07T10:18:34;30.20;60.30
10459;DHT22;5277;48.722;8.736;2023-05-07T10:21:17;30.70;58.30
10459;DHT22;5277;48.722;8.736;2023-05-07T10:23:50;31.10;57.90
10459;DHT22;5277;48.722;8.736;2023-05-07T10:26:17;31.40;57.80
10459;DHT22;5277;48.722;8.736;2023-05-07T10:28:45;31.70;55.90
10459;DHT22;5277;48.722;8.736;2023-05-07T10:31:49;31.30;55.40
10459;DHT22;5277;48.722;8.736;2023-05-07T10:34:20;31.20;56.20
10459;DHT22;5277;48.722;8.736;2023-05-07T10:36:48;30.40;56.70
10459;DHT22;5277;48.722;8.736;2023-05-07T10:39:14;30.10;56.30
10459;DHT22;5277;48.722;8.736;2023-05-07T10:41:43;29.50;57.50
10459;DHT22;5277;48.722;8.736;2023-05-07T10:44:13;28.90;58.70
10459;DHT22;5277;48.722;8.736;2023-05-07T10:49:33;27.40;63.60
10459;DHT22;5277;48.722;8.736;2023-05-07T10:52:12;26.90;66.30
10459;DHT22;5277;48.722;8.736;2023-05-07T10:54:39;26.30;68.20
10459;DHT22;5277;48.722;8.736;2023-05-07T10:59:56;25.50;73.70
10459;DHT22;5277;48.722;8.736;2023-05-07T11:02:24;25.20;74.30
10459;DHT22;5277;48.722;8.736;2023-05-07T11:05:22;24.80;75.60
10459;DHT22;5277;48.722;8.736;2023-05-07T11:08:01;24.30;77.70
10459;DHT22;5277;48.722;8.736;2023-05-07T11:10:53;23.90;83.30
10459;DHT22;5277;48.722;8.736;2023-05-07T11:13:43;23.50;90.10
10459;DHT22;5277;48.722;8.736;2023-05-07T11:16:25;22.90;92.80
10459;DHT22;5277;48.722;8.736;2023-05-07T11:18:56;22.50;94.60
10459;DHT22;5277;48.722;8.736;2023-05-07T11:21:35;22.10;95.90
10459;DHT22;5277;48.722;8.736;2023-05-07T11:24:05;21.70;96.80
10459;DHT22;5277;48.722;8.736;2023-05-07T11:26:42;21.20;98.20
10459;DHT22;5277;48.722;8.736;2023-05-07T11:29:16;20.90;99.50
10459;DHT22;5277;48.722;8.736;2023-05-07T11:31:42;20.60;99.90
10459;DHT22;5277;48.722;8.736;2023-05-07T11:34:08;20.40;99.90
10459;DHT22;5277;48.722;8.736;2023-05-07T11:36:36;20.10;99.90
10459;DHT22;5277;48.722;8.736;2023-05-07T11:39:23;19.90;99.90
10459;DHT22;5277;48.722;8.736;2023-05-07T11:41:49;19.70;99.90
10459;DHT22;5277;48.722;8.736;2023-05-07T11:45:23;19.60;99.90
10459;DHT22;5277;48.722;8.736;2023-05-07T11:47:52;19.40;99.90
10459;DHT22;5277;48.722;8.736;2023-05-07T11:50:18;19.30;99.90
10459;DHT22;5277;48.722;8.736;2023-05-07T11:52:50;19.20;99.90
10459;DHT22;5277;48.722;8.736;2023-05-07T11:55:20;19.20;99.90
10459;DHT22;5277;48.722;8.736;2023-05-07T11:57:47;19.00;99.90
10459;DHT22;5277;48.722;8.736;2023-05-07T12:00:16;19.00;99.90
10459;DHT22;5277;48.722;8.736;2023-05-07T12:02:42;18.90;99.90
10459;DHT22;5277;48.722;8.736;2023-05-07T12:05:08;18.80;99.90
10459;DHT22;5277;48.722;8.736;2023-05-07T12:07:34;18.80;99.90
10459;DHT22;5277;48.722;8.736;2023-05-07T12:10:07;18.70;99.90
10459;DHT22;5277;48.722;8.736;2023-05-07T12:12:38;18.70;99.90
10459;DHT22;5277;48.722;8.736;2023-05-07T12:15:05;18.70;99.90
10459;DHT22;5277;48.722;8.736;2023-05-07T12:17:31;18.70;99.90
10459;DHT22;5277;48.722;8.736;2023-05-07T12:19:57;18.80;99.90
10459;DHT22;5277;48.722;8.736;2023-05-07T12:22:26;18.90;99.90
10459;DHT22;5277;48.722;8.736;2023-05-07T12:24:58;19.00;99.90
10459;DHT22;5277;48.722;8.736;2023-05-07T12:27:25;19.00;99.90
10459;DHT22;5277;48.722;8.736;2023-05-07T12:29:51;19.00;99.90
10459;DHT22;5277;48.722;8.736;2023-05-07T12:32:21;18.90;99.90
10459;DHT22;5277;48.722;8.736;2023-05-07T12:34:49;18.90;99.90
10459;DHT22;5277;48.722;8.736;2023-05-07T12:37:15;18.80;99.90
10459;DHT22;5277;48.722;8.736;2023-05-07T12:39:47;18.70;99.90
10459;DHT22;5277;48.722;8.736;2023-05-07T12:42:16;18.70;99.90
10459;DHT22;5277;48.722;8.736;2023-05-07T12:44:46;18.50;99.90
10459;DHT22;5277;48.722;8.736;2023-05-07T12:47:12;18.40;99.90
10459;DHT22;5277;48.722;8.736;2023-05-07T12:49:38;18.40;99.90
10459;DHT22;5277;48.722;8.736;2023-05-07T12:52:06;18.40;99.90
10459;DHT22;5277;48.722;8.736;2023-05-07T12:54:34;18.40;99.90
10459;DHT22;5277;48.722;8.736;2023-05-07T12:57:08;18.40;99.90
10459;DHT22;5277;48.722;8.736;2023-05-07T12:59:41;18.40;99.90
10459;DHT22;5277;48.722;8.736;2023-05-07T13:02:08;18.40;99.90
10459;DHT22;5277;48.722;8.736;2023-05-07T13:04:34;18.40;99.90
10459;DHT22;5277;48.722;8.736;2023-05-07T13:07:01;18.30;99.90
10459;DHT22;5277;48.722;8.736;2023-05-07T13:09:27;18.30;99.90
10459;DHT22;5277;48.722;8.736;2023-05-07T13:11:54;18.30;99.90
10459;DHT22;5277;48.722;8.736;2023-05-07T13:14:20;18.20;99.90
10459;DHT22;5277;48.722;8.736;2023-05-07T13:16:47;18.30;99.90
10459;DHT22;5277;48.722;8.736;2023-05-07T13:19:13;18.30;99.90
10459;DHT22;5277;48.722;8.736;2023-05-07T13:21:39;18.20;99.90
10459;DHT22;5277;48.722;8.736;2023-05-07T13:24:05;18.20;99.90
10459;DHT22;5277;48.722;8.736;2023-05-07T13:26:31;18.00;99.90
10459;DHT22;5277;48.722;8.736;2023-05-07T13:28:57;17.90;99.90
10459;DHT22;5277;48.722;8.736;2023-05-07T13:31:23;17.80;99.90
10459;DHT22;5277;48.722;8.736;2023-05-07T13:33:49;17.70;99.90
10459;DHT22;5277;48.722;8.736;2023-05-07T13:36:15;17.60;99.90
10459;DHT22;5277;48.722;8.736;2023-05-07T13:38:44;17.60;99.90
10459;DHT22;5277;48.722;8.736;2023-05-07T13:41:09;17.50;99.90
10459;DHT22;5277;48.722;8.736;2023-05-07T13:43:35;17.50;99.90
10459;DHT22;5277;48.722;8.736;2023-05-07T13:46:01;17.40;99.90
10459;DHT22;5277;48.722;8.736;2023-05-07T13:48:27;17.40;99.90
10459;DHT22;5277;48.722;8.736;2023-05-07T13:50:53;17.30;99.90
10459;DHT22;5277;48.722;8.736;2023-05-07T13:53:21;17.20;99.90
10459;DHT22;5277;48.722;8.736;2023-05-07T13:55:47;17.10;99.90
10459;DHT22;5277;48.722;8.736;2023-05-07T13:58:15;17.20;99.90
10459;DHT22;5277;48.722;8.736;2023-05-07T14:00:41;17.20;99.90
10459;DHT22;5277;48.722;8.736;2023-05-07T14:03:06;17.30;99.90
10459;DHT22;5277;48.722;8.736;2023-05-07T14:05:32;17.30;99.90
10459;DHT22;5277;48.722;8.736;2023-05-07T14:07:58;17.40;99.90
10459;DHT22;5277;48.722;8.736;2023-05-07T14:10:24;17.40;99.90
10459;DHT22;5277;48.722;8.736;2023-05-07T14:12:50;17.40;99.90
10459;DHT22;5277;48.722;8.736;2023-05-07T14:15:16;17.40;99.90
10459;DHT22;5277;48.722;8.736;2023-05-07T14:17:42;17.50;99.90
10459;DHT22;5277;48.722;8.736;2023-05-07T14:20:08;17.50;99.90
10459;DHT22;5277;48.722;8.736;2023-05-07T14:22:36;17.40;99.90
10459;DHT22;5277;48.722;8.736;2023-05-07T14:25:01;17.30;99.90
10459;DHT22;5277;48.722;8.736;2023-05-07T14:27:27;17.30;99.90
10459;DHT22;5277;48.722;8.736;2023-05-07T14:29:53;17.20;99.90
10459;DHT22;5277;48.722;8.736;2023-05-07T14:32:19;17.20;99.90
10459;DHT22;5277;48.722;8.736;2023-05-07T14:34:45;17.40;99.90
10459;DHT22;5277;48.722;8.736;2023-05-07T14:37:11;17.50;99.90
10459;DHT22;5277;48.722;8.736;2023-05-07T14:39:37;17.40;99.90
10459;DHT22;5277;48.722;8.736;2023-05-07T14:42:05;17.30;99.90
10459;DHT22;5277;48.722;8.736;2023-05-07T14:44:35;17.30;99.90
10459;DHT22;5277;48.722;8.736;2023-05-07T14:47:01;17.30;99.90
10459;DHT22;5277;48.722;8.736;2023-05-07T14:49:29;17.30;99.90
10459;DHT22;5277;48.722;8.736;2023-05-07T14:51:57;17.40;99.90
10459;DHT22;5277;48.722;8.736;2023-05-07T14:54:23;17.50;99.90
10459;DHT22;5277;48.722;8.736;2023-05-07T14:56:49;17.60;99.90
10459;DHT22;5277;48.722;8.736;2023-05-07T14:59:15;17.70;99.90
10459;DHT22;5277;48.722;8.736;2023-05-07T15:01:44;17.70;99.90
10459;DHT22;5277;48.722;8.736;2023-05-07T15:04:13;17.70;99.90
10459;DHT22;5277;48.722;8.736;2023-05-07T15:06:39;17.80;99.90
10459;DHT22;5277;48.722;8.736;2023-05-07T15:09:07;17.90;99.90
10459;DHT22;5277;48.722;8.736;2023-05-07T15:11:35;18.00;99.90
10459;DHT22;5277;48.722;8.736;2023-05-07T15:14:03;18.00;99.90
10459;DHT22;5277;48.722;8.736;2023-05-07T15:16:31;18.10;99.90
10459;DHT22;5277;48.722;8.736;2023-05-07T15:18:58;18.10;99.90
10459;DHT22;5277;48.722;8.736;2023-05-07T15:21:24;18.20;99.90
10459;DHT22;5277;48.722;8.736;2023-05-07T15:23:49;18.20;99.90
10459;DHT22;5277;48.722;8.736;2023-05-07T15:26:15;18.20;99.90
10459;DHT22;5277;48.722;8.736;2023-05-07T15:28:41;18.40;99.90
10459;DHT22;5277;48.722;8.736;2023-05-07T15:31:07;18.40;99.90
10459;DHT22;5277;48.722;8.736;2023-05-07T15:33:33;18.40;99.90
10459;DHT22;5277;48.722;8.736;2023-05-07T15:35:59;18.60;99.90
10459;DHT22;5277;48.722;8.736;2023-05-07T15:38:26;18.50;99.90
10459;DHT22;5277;48.722;8.736;2023-05-07T15:40:51;18.40;99.90
10459;DHT22;5277;48.722;8.736;2023-05-07T15:43:17;18.50;99.90
10459;DHT22;5277;48.722;8.736;2023-05-07T15:45:43;18.50;99.90
10459;DHT22;5277;48.722;8.736;2023-05-07T15:48:09;18.50;99.90
10459;DHT22;5277;48.722;8.736;2023-05-07T15:50:37;18.50;99.90